Time;durP1;ratioP1;P1;durP2;ratioP2;P2;SDS_P1;SDS_P2;PMS_P1;PMS_P2;Temp;Humidity;BMP_temperature;BMP_pressure;BME280_temperature;BME280_humidity;BME280_pressure;Samples;Min_cycle;Max_cycle;Signal;HPM_P1;HPM_P2
2022/04/30 00:01:09;;;;;;;4.13;2.35;;;;;;;;;;4997660;28;20416;-78
2022/04/30 00:03:35;;;;;;;5.95;2.67;;;;;;;;;;4981735;28;20030;-78
2022/04/30 00:06:00;;;;;;;5.85;2.60;;;;;;;;;;4997629;28;20042;-78
2022/04/30 00:08:26;;;;;;;4.90;2.63;;;;;;;;;;5014334;28;20100;-78
2022/04/30 00:10:53;;;;;;;3.95;2.20;;;;;;;;;;5013965;28;20037;-78
2022/04/30 00:13:19;;;;;;;3.95;2.55;;;;;;;;;;5014313;28;20095;-78
2022/04/30 00:15:44;;;;;;;5.07;2.75;;;;;;;;;;5013864;28;20033;-78
2022/04/30 00:18:10;;;;;;;4.57;2.45;;;;;;;;;;5030423;28;20049;-77
2022/04/30 00:20:36;;;;;;;3.90;2.33;;;;;;;;;;5030501;28;20033;-78
2022/04/30 00:23:03;;;;;;;3.60;2.20;;;;;;;;;;5029905;28;20519;-78
2022/04/30 00:25:28;;;;;;;3.15;2.20;;;;;;;;;;5013541;28;20042;-78
2022/04/30 00:27:56;;;;;;;5.90;2.38;;;;;;;;;;5014255;28;20049;-78
2022/04/30 00:30:22;;;;;;;3.42;2.40;;;;;;;;;;5014002;28;20080;-78
2022/04/30 00:32:48;;;;;;;4.72;2.17;;;;;;;;;;5013783;28;20046;-78
2022/04/30 00:35:14;;;;;;;3.78;2.28;;;;;;;;;;5013465;28;20041;-78
2022/04/30 00:37:40;;;;;;;3.58;2.15;;;;;;;;;;5029715;28;20069;-78
2022/04/30 00:40:06;;;;;;;3.15;1.98;;;;;;;;;;5019109;28;20053;-77
2022/04/30 00:42:32;;;;;;;4.63;2.22;;;;;;;;;;5009129;28;20113;-78
2022/04/30 00:44:57;;;;;;;2.97;2.10;;;;;;;;;;4993790;28;20901;-78
2022/04/30 00:47:24;;;;;;;3.30;2.00;;;;;;;;;;5010170;28;20504;-77
2022/04/30 00:49:50;;;;;;;3.92;2.03;;;;;;;;;;4993472;28;20393;-78
2022/04/30 00:52:16;;;;;;;3.72;2.40;;;;;;;;;;5010067;28;20045;-78
2022/04/30 00:54:42;;;;;;;4.03;2.28;;;;;;;;;;4993676;28;20485;-78
2022/04/30 00:57:13;;;;;;;4.75;2.30;;;;;;;;;;5009510;28;20073;-78
2022/04/30 00:59:39;;;;;;;3.80;1.98;;;;;;;;;;4993729;28;20045;-78
2022/04/30 01:02:04;;;;;;;4.75;2.30;;;;;;;;;;5016795;28;20039;-77
2022/04/30 01:04:30;;;;;;;3.10;1.70;;;;;;;;;;5029276;28;20524;-77
2022/04/30 01:06:56;;;;;;;3.28;1.85;;;;;;;;;;5028988;28;20037;-78
2022/04/30 01:09:28;;;;;;;3.63;2.20;;;;;;;;;;5012582;28;20026;-78
2022/04/30 01:11:59;;;;;;;3.00;2.05;;;;;;;;;;5012269;28;20061;-78
2022/04/30 01:14:26;;;;;;;3.97;2.40;;;;;;;;;;5012764;28;20125;-78
2022/04/30 01:16:52;;;;;;;3.70;2.17;;;;;;;;;;5013010;28;20030;-78
2022/04/30 01:19:19;;;;;;;4.53;2.20;;;;;;;;;;5029423;28;20042;-78
2022/04/30 01:21:48;;;;;;;3.78;1.70;;;;;;;;;;5029222;28;20088;-78
2022/04/30 01:24:15;;;;;;;3.60;1.88;;;;;;;;;;5029473;28;20037;-78
2022/04/30 01:26:41;;;;;;;4.22;2.60;;;;;;;;;;5012754;28;20052;-78
2022/04/30 01:29:08;;;;;;;2.47;1.73;;;;;;;;;;5012590;28;20117;-78
2022/04/30 01:39:52;;;;;;;2.92;1.85;;;;;;;;;;5012710;28;20034;-77
2022/04/30 01:42:18;;;;;;;2.80;1.70;;;;;;;;;;4980710;28;20034;-78
2022/04/30 01:44:47;;;;;;;3.30;1.83;;;;;;;;;;5012317;28;20061;-78
2022/04/30 01:47:15;;;;;;;2.65;1.70;;;;;;;;;;4980605;28;20116;-78
2022/04/30 01:49:41;;;;;;;2.80;1.70;;;;;;;;;;4979412;28;20050;-78
2022/04/30 01:52:09;;;;;;;4.85;2.05;;;;;;;;;;4995953;28;20033;-78
2022/04/30 01:54:36;;;;;;;4.00;1.92;;;;;;;;;;4979631;28;20566;-77
2022/04/30 01:57:03;;;;;;;3.63;1.85;;;;;;;;;;4979655;28;20045;-77
2022/04/30 01:59:28;;;;;;;3.85;1.80;;;;;;;;;;4995971;28;20454;-78
2022/04/30 02:01:53;;;;;;;2.70;1.80;;;;;;;;;;4995629;28;20026;-77
2022/04/30 02:04:21;;;;;;;3.33;1.67;;;;;;;;;;5028193;28;20038;-78
2022/04/30 02:06:47;;;;;;;2.53;1.70;;;;;;;;;;5011400;28;20080;-78
2022/04/30 02:09:14;;;;;;;2.97;1.83;;;;;;;;;;5011663;28;20050;-78
2022/04/30 02:11:40;;;;;;;2.72;1.80;;;;;;;;;;5011493;28;20420;-78
2022/04/30 02:14:06;;;;;;;3.63;2.03;;;;;;;;;;5008549;28;20401;-78
2022/04/30 02:16:32;;;;;;;3.53;2.03;;;;;;;;;;4992359;28;20026;-78
2022/04/30 02:18:57;;;;;;;2.17;1.67;;;;;;;;;;4992214;28;20050;-78
2022/04/30 02:21:23;;;;;;;2.95;1.88;;;;;;;;;;4975466;28;20420;-78
2022/04/30 02:23:48;;;;;;;2.78;1.77;;;;;;;;;;5008488;28;20088;-78
2022/04/30 02:26:14;;;;;;;2.17;1.30;;;;;;;;;;4975199;28;20078;-78
2022/04/30 02:28:40;;;;;;;2.40;1.63;;;;;;;;;;5008278;28;20452;-78
2022/04/30 02:31:05;;;;;;;2.95;1.70;;;;;;;;;;4991821;28;20061;-78
2022/04/30 02:33:31;;;;;;;2.80;2.03;;;;;;;;;;4991908;28;20034;-78
2022/04/30 02:35:58;;;;;;;3.13;1.63;;;;;;;;;;4991720;28;20042;-77
2022/04/30 02:38:26;;;;;;;2.97;1.63;;;;;;;;;;4992070;28;20572;-78
2022/04/30 02:40:52;;;;;;;3.67;1.85;;;;;;;;;;5008277;28;20447;-78
2022/04/30 02:43:19;;;;;;;2.40;1.38;;;;;;;;;;4978613;28;20038;-78
2022/04/30 02:45:45;;;;;;;2.75;1.52;;;;;;;;;;4995370;28;20493;-78
2022/04/30 02:48:12;;;;;;;3.95;2.00;;;;;;;;;;4994949;28;20132;-77
2022/04/30 02:50:38;;;;;;;2.25;1.40;;;;;;;;;;4979266;28;20050;-78
2022/04/30 02:53:03;;;;;;;2.47;1.63;;;;;;;;;;4978767;28;20037;-78
2022/04/30 02:55:29;;;;;;;2.97;1.75;;;;;;;;;;4994340;28;20134;-78
2022/04/30 03:00:49;;;;;;;2.70;1.88;;;;;;;;;;4997415;28;20037;-78
2022/04/30 03:03:15;;;;;;;3.78;1.90;;;;;;;;;;4994742;28;20045;-78
2022/04/30 03:05:43;;;;;;;3.50;1.58;;;;;;;;;;5027419;28;20377;-77
2022/04/30 03:08:20;;;;;;;4.20;1.92;;;;;;;;;;5010657;28;20041;-78
2022/04/30 03:10:47;;;;;;;3.92;2.25;;;;;;;;;;5027505;28;20030;-78
2022/04/30 03:13:14;;;;;;;3.00;2.08;;;;;;;;;;5011103;28;20068;-78
2022/04/30 03:15:51;;;;;;;;;;;;;;;;;;;;;
2022/04/30 03:23:51;;;;;;;2.95;1.88;;;;;;;;;;5010863;28;20026;-78
2022/04/30 03:26:17;;;;;;;3.88;1.75;;;;;;;;;;5010998;28;20065;-77
2022/04/30 03:28:54;;;;;;;2.13;1.40;;;;;;;;;;5010949;28;20091;-78
2022/04/30 03:31:20;;;;;;;3.08;1.58;;;;;;;;;;5010320;28;20033;-77
2022/04/30 03:33:48;;;;;;;2.38;1.67;;;;;;;;;;5011767;28;20040;-78
2022/04/30 03:36:15;;;;;;;3.92;1.70;;;;;;;;;;5014467;28;20038;-78
2022/04/30 03:38:43;;;;;;;3.17;1.70;;;;;;;;;;5014357;28;20045;-77
2022/04/30 03:41:08;;;;;;;2.58;1.48;;;;;;;;;;4998791;28;20045;-77
2022/04/30 03:43:33;;;;;;;3.00;1.75;;;;;;;;;;5015018;28;20072;-78
2022/04/30 03:45:59;;;;;;;3.38;1.77;;;;;;;;;;4998142;28;20038;-78
2022/04/30 03:48:25;;;;;;;2.60;1.48;;;;;;;;;;4997993;28;20416;-78
2022/04/30 03:50:50;;;;;;;2.38;1.67;;;;;;;;;;4981909;28;20493;-78
2022/04/30 03:53:15;;;;;;;2.45;1.55;;;;;;;;;;4997901;28;20400;-78
2022/04/30 03:55:41;;;;;;;4.18;1.70;;;;;;;;;;4981573;28;20049;-78
2022/04/30 03:58:11;;;;;;;2.13;1.60;;;;;;;;;;4981616;28;20451;-77
2022/04/30 04:00:37;;;;;;;3.17;1.23;;;;;;;;;;4982264;28;20523;-77
2022/04/30 04:03:02;;;;;;;2.83;1.60;;;;;;;;;;4997710;28;20061;-78
2022/04/30 04:05:28;;;;;;;3.65;2.35;;;;;;;;;;5030214;28;20048;-78
2022/04/30 04:07:56;;;;;;;3.95;2.28;;;;;;;;;;5013129;28;20044;-78
2022/04/30 04:10:21;;;;;;;2.38;1.40;;;;;;;;;;5014603;28;20050;-78
2022/04/30 04:12:47;;;;;;;2.97;1.33;;;;;;;;;;5030082;28;20515;-77
2022/04/30 04:17:56;;;;;;;2.83;1.40;;;;;;;;;;5014308;28;20038;-78
2022/04/30 04:20:24;;;;;;;3.42;1.40;;;;;;;;;;5013542;28;20133;-79
2022/04/30 04:22:50;;;;;;;2.67;2.05;;;;;;;;;;5031033;28;20033;-78
2022/04/30 04:28:00;;;;;;;2.58;1.33;;;;;;;;;;5014105;28;20033;-78
2022/04/30 04:30:26;;;;;;;2.38;1.25;;;;;;;;;;5029770;28;20515;-78
2022/04/30 04:32:52;;;;;;;2.42;1.20;;;;;;;;;;4997266;28;20029;-78
2022/04/30 04:35:18;;;;;;;2.17;1.45;;;;;;;;;;4996966;28;20690;-78
2022/04/30 04:37:43;;;;;;;2.95;1.70;;;;;;;;;;5029705;28;20045;-78
2022/04/30 04:40:09;;;;;;;2.05;1.42;;;;;;;;;;5018638;28;20045;-78
2022/04/30 04:42:35;;;;;;;2.47;1.20;;;;;;;;;;4994227;28;20113;-78
2022/04/30 04:45:01;;;;;;;2.00;1.33;;;;;;;;;;4993741;28;20125;-78
2022/04/30 04:47:26;;;;;;;2.15;1.05;;;;;;;;;;5009946;28;20564;-77
2022/04/30 04:49:52;;;;;;;2.65;1.40;;;;;;;;;;5009392;28;20576;-77
2022/04/30 04:52:18;;;;;;;2.25;1.30;;;;;;;;;;5009694;28;20074;-78
2022/04/30 04:54:44;;;;;;;2.60;1.52;;;;;;;;;;4993862;28;20508;-77
2022/04/30 04:57:10;;;;;;;2.00;1.30;;;;;;;;;;4993529;28;20121;-78
2022/04/30 04:59:35;;;;;;;2.17;1.30;;;;;;;;;;4992904;28;20074;-78
2022/04/30 05:02:02;;;;;;;2.83;1.30;;;;;;;;;;4999864;28;20041;-77
2022/04/30 05:04:27;;;;;;;13.40;2.15;;;;;;;;;;4989130;28;20073;-78
2022/04/30 05:06:53;;;;;;;15.52;2.15;;;;;;;;;;5028149;28;20129;-78
2022/04/30 05:09:18;;;;;;;11.43;1.98;;;;;;;;;;5010276;28;20048;-78
2022/04/30 05:11:43;;;;;;;10.07;1.85;;;;;;;;;;5010383;28;20468;-78
2022/04/30 05:14:09;;;;;;;4.78;1.60;;;;;;;;;;5012014;28;20496;-78
2022/04/30 05:16:34;;;;;;;7.72;1.70;;;;;;;;;;5012838;28;20456;-77
2022/04/30 05:19:00;;;;;;;6.38;1.67;;;;;;;;;;5012103;28;20516;-78
2022/04/30 05:21:25;;;;;;;6.00;1.73;;;;;;;;;;5029187;28;20049;-77
2022/04/30 05:23:51;;;;;;;6.75;1.40;;;;;;;;;;5012532;28;20038;-77
2022/04/30 05:26:17;;;;;;;4.95;1.35;;;;;;;;;;4996504;28;20069;-77
2022/04/30 05:28:42;;;;;;;3.28;1.63;;;;;;;;;;5012665;28;20036;-77
2022/04/30 05:31:08;;;;;;;2.58;1.40;;;;;;;;;;5012528;28;20045;-78
2022/04/30 05:33:35;;;;;;;3.25;1.20;;;;;;;;;;5012679;28;20042;-77
2022/04/30 05:36:01;;;;;;;7.63;1.30;;;;;;;;;;5012180;28;20397;-77
2022/04/30 05:38:27;;;;;;;2.95;1.30;;;;;;;;;;5012756;28;20084;-77
2022/04/30 05:40:52;;;;;;;2.95;1.25;;;;;;;;;;4998895;28;20030;-77
2022/04/30 05:43:18;;;;;;;1.85;0.85;;;;;;;;;;4979723;28;20045;-78
2022/04/30 05:45:43;;;;;;;3.22;1.27;;;;;;;;;;4979634;28;20069;-78
2022/04/30 05:48:09;;;;;;;3.75;1.35;;;;;;;;;;4995483;28;20038;-78
2022/04/30 05:50:34;;;;;;;2.10;0.90;;;;;;;;;;4995616;28;20068;-78
2022/04/30 05:52:59;;;;;;;5.55;1.55;;;;;;;;;;4979322;28;20099;-79
2022/04/30 05:55:25;;;;;;;3.08;0.90;;;;;;;;;;4995762;28;20060;-81
2022/04/30 05:57:51;;;;;;;9.10;2.42;;;;;;;;;;4979273;28;20091;-78
2022/04/30 06:00:16;;;;;;;3.63;1.15;;;;;;;;;;4979618;28;20040;-79
2022/04/30 06:02:42;;;;;;;1.98;1.10;;;;;;;;;;4996450;28;20506;-78
2022/04/30 06:05:08;;;;;;;4.82;1.17;;;;;;;;;;5015565;28;20040;-79
2022/04/30 06:07:34;;;;;;;3.17;1.10;;;;;;;;;;5034062;28;20042;-78
2022/04/30 06:09:59;;;;;;;4.75;1.17;;;;;;;;;;5020714;28;20038;-78
2022/04/30 06:12:25;;;;;;;7.18;1.40;;;;;;;;;;5014022;28;20057;-79
2022/04/30 06:14:50;;;;;;;3.50;1.10;;;;;;;;;;5017391;28;20404;-79
2022/04/30 06:17:16;;;;;;;3.70;1.40;;;;;;;;;;5034428;28;20041;-79
2022/04/30 06:19:41;;;;;;;6.90;1.90;;;;;;;;;;5018146;28;20132;-80
2022/04/30 06:22:07;;;;;;;5.15;1.50;;;;;;;;;;5019284;28;20030;-79
2022/04/30 06:24:33;;;;;;;7.97;1.80;;;;;;;;;;5018498;28;20455;-80
2022/04/30 06:26:59;;;;;;;4.22;1.90;;;;;;;;;;5018914;28;20033;-80
2022/04/30 06:29:24;;;;;;;3.80;1.45;;;;;;;;;;5034976;28;20038;-80
2022/04/30 06:31:51;;;;;;;6.60;1.90;;;;;;;;;;5034523;28;20033;-81
2022/04/30 06:34:17;;;;;;;6.25;2.00;;;;;;;;;;5034016;28;20528;-80
2022/04/30 06:36:42;;;;;;;6.50;1.98;;;;;;;;;;5032666;28;20042;-80
2022/04/30 06:39:08;;;;;;;5.85;1.77;;;;;;;;;;5019110;28;20065;-80
2022/04/30 06:41:33;;;;;;;6.03;2.25;;;;;;;;;;4985464;28;20400;-81
2022/04/30 06:44:00;;;;;;;11.45;2.00;;;;;;;;;;4984676;28;20121;-80
2022/04/30 06:46:25;;;;;;;5.95;1.80;;;;;;;;;;5001192;28;20026;-80
2022/04/30 06:48:51;;;;;;;4.93;1.65;;;;;;;;;;4984066;28;20122;-80
2022/04/30 06:51:16;;;;;;;8.02;4.60;;;;;;;;;;5000594;28;20445;-81
2022/04/30 06:59:11;;;;;;;13.98;7.90;;;;;;;;;;5026063;28;20042;-79
2022/04/30 07:01:42;;;;;;;12.60;8.80;;;;;;;;;;5033275;28;20049;-80
2022/04/30 07:04:10;;;;;;;12.95;7.90;;;;;;;;;;5024433;28;20089;-80
2022/04/30 07:06:37;;;;;;;10.93;7.07;;;;;;;;;;5039359;28;20029;-79
2022/04/30 07:09:05;;;;;;;12.07;7.35;;;;;;;;;;5021572;28;20041;-79
2022/04/30 07:11:31;;;;;;;14.27;7.03;;;;;;;;;;5007483;28;20030;-80
2022/04/30 07:13:57;;;;;;;10.60;6.15;;;;;;;;;;4994707;28;20030;-80
2022/04/30 07:16:22;;;;;;;13.38;6.75;;;;;;;;;;4985268;28;20030;-80
2022/04/30 07:18:48;;;;;;;15.95;6.15;;;;;;;;;;5016644;28;20054;-80
2022/04/30 07:21:13;;;;;;;10.05;5.40;;;;;;;;;;5034345;28;20034;-80
2022/04/30 07:23:39;;;;;;;12.55;5.93;;;;;;;;;;5016575;28;20131;-80
2022/04/30 07:26:04;;;;;;;10.50;5.80;;;;;;;;;;5000367;28;20125;-81
2022/04/30 07:28:33;;;;;;;12.15;6.55;;;;;;;;;;5026874;28;20042;-80
2022/04/30 07:30:58;;;;;;;13.25;6.97;;;;;;;;;;5010385;28;20042;-80
2022/04/30 07:33:24;;;;;;;10.98;6.57;;;;;;;;;;5010688;28;20548;-80
2022/04/30 07:35:49;;;;;;;10.52;5.82;;;;;;;;;;5010547;28;20408;-80
2022/04/30 07:38:14;;;;;;;12.07;6.53;;;;;;;;;;5026560;28;20045;-80
2022/04/30 07:40:40;;;;;;;13.38;5.60;;;;;;;;;;5026667;28;20037;-80
2022/04/30 07:43:05;;;;;;;13.10;6.15;;;;;;;;;;4993963;28;20042;-81
2022/04/30 07:45:31;;;;;;;10.93;5.75;;;;;;;;;;4994056;28;20381;-80
2022/04/30 07:47:56;;;;;;;12.73;5.70;;;;;;;;;;4977550;28;20045;-80
2022/04/30 07:50:23;;;;;;;11.10;5.00;;;;;;;;;;4993934;28;20073;-81
2022/04/30 07:52:48;;;;;;;9.77;5.25;;;;;;;;;;4977934;28;20530;-81
2022/04/30 07:55:14;;;;;;;11.00;5.15;;;;;;;;;;5026582;28;20030;-82
2022/04/30 07:57:40;;;;;;;11.73;4.97;;;;;;;;;;5026520;28;20412;-83
2022/04/30 08:00:08;;;;;;;12.52;4.70;;;;;;;;;;4980419;28;20045;-80
2022/04/30 08:02:33;;;;;;;12.02;5.03;;;;;;;;;;4990596;28;20128;-81
2022/04/30 08:05:02;;;;;;;10.05;4.80;;;;;;;;;;4974632;28;20109;-83
2022/04/30 08:07:28;;;;;;;12.27;4.47;;;;;;;;;;4990284;28;20429;-82
2022/04/30 08:09:53;;;;;;;13.25;5.78;;;;;;;;;;5007133;28;20074;-79
2022/04/30 08:12:19;;;;;;;12.35;4.88;;;;;;;;;;4990188;28;20050;-80
2022/04/30 08:14:45;;;;;;;10.90;4.43;;;;;;;;;;4974794;28;20031;-80
2022/04/30 08:17:13;;;;;;;15.93;4.88;;;;;;;;;;4974092;28;20583;-80
2022/04/30 08:19:38;;;;;;;13.30;4.38;;;;;;;;;;4975193;28;20046;-81
2022/04/30 08:22:04;;;;;;;13.55;4.20;;;;;;;;;;4994083;28;20560;-81
2022/04/30 08:24:29;;;;;;;12.05;4.70;;;;;;;;;;4977575;28;20180;-80
2022/04/30 08:26:56;;;;;;;15.13;4.80;;;;;;;;;;5026663;28;20503;-81
2022/04/30 08:29:22;;;;;;;14.68;5.07;;;;;;;;;;5013632;28;20040;-81
2022/04/30 08:31:47;;;;;;;13.73;4.82;;;;;;;;;;4997444;28;20041;-81
2022/04/30 08:34:13;;;;;;;14.07;5.05;;;;;;;;;;5013556;28;20588;-81
2022/04/30 08:36:38;;;;;;;10.55;4.25;;;;;;;;;;5013143;28;20104;-81
2022/04/30 08:39:03;;;;;;;14.02;5.18;;;;;;;;;;5029670;28;20447;-80
2022/04/30 08:41:29;;;;;;;13.77;4.65;;;;;;;;;;4980512;28;20046;-80
2022/04/30 08:43:54;;;;;;;14.38;4.88;;;;;;;;;;4980570;28;20030;-78
2022/04/30 08:46:20;;;;;;;11.73;4.22;;;;;;;;;;4996984;28;20042;-78
2022/04/30 08:48:45;;;;;;;13.65;4.20;;;;;;;;;;4996759;28;20416;-79
2022/04/30 08:51:11;;;;;;;9.98;4.13;;;;;;;;;;4980521;28;20042;-80
2022/04/30 08:53:37;;;;;;;13.23;3.85;;;;;;;;;;5029842;28;20040;-79
2022/04/30 08:56:07;;;;;;;15.80;5.00;;;;;;;;;;5029012;28;20147;-79
2022/04/30 08:58:32;;;;;;;8.98;4.15;;;;;;;;;;5013340;28;20072;-79
2022/04/30 09:00:59;;;;;;;12.95;3.90;;;;;;;;;;5012754;28;20046;-79
2022/04/30 09:03:25;;;;;;;7.78;3.65;;;;;;;;;;5013024;28;20088;-79
2022/04/30 09:05:50;;;;;;;8.05;3.63;;;;;;;;;;5012867;28;20046;-79
2022/04/30 09:08:16;;;;;;;8.82;3.47;;;;;;;;;;5013158;28;20104;-79
2022/04/30 09:10:42;;;;;;;10.85;3.85;;;;;;;;;;5044956;28;20050;-79
2022/04/30 09:13:12;;;;;;;10.32;3.42;;;;;;;;;;4996032;28;20057;-78
2022/04/30 09:15:39;;;;;;;10.15;3.50;;;;;;;;;;5011742;28;20108;-79
2022/04/30 09:18:05;;;;;;;8.05;3.88;;;;;;;;;;4995588;28;20049;-79
2022/04/30 09:20:31;;;;;;;9.32;3.20;;;;;;;;;;4995970;28;20112;-79
2022/04/30 09:22:56;;;;;;;9.20;2.75;;;;;;;;;;4996115;28;20492;-79
2022/04/30 09:25:22;;;;;;;7.88;2.88;;;;;;;;;;4995609;28;20034;-78
2022/04/30 09:27:49;;;;;;;6.35;2.80;;;;;;;;;;5012828;28;20030;-78
2022/04/30 09:30:21;;;;;;;6.45;3.00;;;;;;;;;;4996665;28;20117;-79
2022/04/30 09:33:00;;;;;;;6.43;2.45;;;;;;;;;;5012892;28;20053;-79
2022/04/30 09:38:09;;;;;;;7.80;2.95;;;;;;;;;;5000498;28;20385;-79
2022/04/30 09:40:35;;;;;;;4.38;2.65;;;;;;;;;;5009137;28;20049;-80
2022/04/30 09:43:05;;;;;;;6.72;2.78;;;;;;;;;;4976300;28;20073;-79
2022/04/30 09:45:31;;;;;;;5.90;2.50;;;;;;;;;;4992667;28;20386;-80
2022/04/30 09:48:00;;;;;;;5.40;2.30;;;;;;;;;;4992532;28;20115;-79
2022/04/30 09:55:59;;;;;;;7.53;2.50;;;;;;;;;;5011639;28;20034;-79
2022/04/30 09:58:26;;;;;;;7.10;2.60;;;;;;;;;;5011928;28;20052;-79
2022/04/30 10:00:58;;;;;;;4.85;2.40;;;;;;;;;;5008340;28;20042;-79
2022/04/30 10:03:30;;;;;;;5.97;2.17;;;;;;;;;;5009007;28;20049;-79
2022/04/30 10:06:01;;;;;;;4.72;2.30;;;;;;;;;;5008873;28;20157;-79
2022/04/30 10:08:27;;;;;;;5.03;2.42;;;;;;;;;;5024452;28;20089;-79
2022/04/30 10:10:55;;;;;;;5.05;2.15;;;;;;;;;;5008757;28;20034;-79
2022/04/30 10:14:06;;;;;;;5.32;2.97;;;;;;;;;;5008581;28;20072;-79
2022/04/30 10:16:31;;;;;;;4.72;2.55;;;;;;;;;;5003155;28;20105;-80
2022/04/30 10:19:14;;;;;;;6.47;2.38;;;;;;;;;;4975655;28;20464;-79
2022/04/30 10:21:39;;;;;;;4.88;1.90;;;;;;;;;;4975831;28;20078;-79
2022/04/30 10:24:05;;;;;;;7.15;2.10;;;;;;;;;;5008199;28;20040;-79
2022/04/30 10:26:31;;;;;;;6.70;2.78;;;;;;;;;;4976035;28;20401;-79
2022/04/30 10:29:01;;;;;;;4.68;2.08;;;;;;;;;;4975443;28;20420;-79
2022/04/30 10:31:26;;;;;;;4.60;1.92;;;;;;;;;;5008210;28;20376;-79
2022/04/30 10:33:52;;;;;;;3.67;2.45;;;;;;;;;;5024651;28;20054;-79
2022/04/30 10:36:18;;;;;;;6.45;2.40;;;;;;;;;;5007948;28;20117;-79
2022/04/30 10:38:53;;;;;;;4.93;1.90;;;;;;;;;;5008060;28;20034;-79
2022/04/30 10:41:19;;;;;;;5.13;1.75;;;;;;;;;;5024173;28;20034;-79
2022/04/30 10:43:44;;;;;;;5.22;2.05;;;;;;;;;;5007800;28;20038;-79
2022/04/30 10:46:13;;;;;;;5.05;2.08;;;;;;;;;;4991637;28;20034;-79
2022/04/30 10:48:38;;;;;;;3.60;1.80;;;;;;;;;;4992658;28;20041;-79
2022/04/30 10:51:07;;;;;;;4.25;1.75;;;;;;;;;;5009630;28;20046;-79
2022/04/30 10:53:33;;;;;;;4.20;1.83;;;;;;;;;;5027567;28;20053;-79
2022/04/30 10:56:03;;;;;;;3.65;2.20;;;;;;;;;;5011118;28;20084;-79
2022/04/30 10:58:30;;;;;;;3.70;2.20;;;;;;;;;;5027482;28;20438;-79
2022/04/30 11:00:58;;;;;;;5.70;2.00;;;;;;;;;;5027093;28;20392;-79
2022/04/30 11:03:27;;;;;;;3.10;1.30;;;;;;;;;;5010236;28;20100;-79
2022/04/30 11:05:53;;;;;;;3.97;1.85;;;;;;;;;;5027196;28;20038;-79
2022/04/30 11:08:18;;;;;;;3.28;1.77;;;;;;;;;;5010679;28;20049;-79
2022/04/30 11:10:54;;;;;;;4.93;2.00;;;;;;;;;;5011161;28;20052;-79
2022/04/30 11:13:22;;;;;;;3.05;1.30;;;;;;;;;;5010486;28;20052;-79
2022/04/30 11:15:48;;;;;;;2.95;1.27;;;;;;;;;;4994625;28;20523;-79
2022/04/30 11:18:23;;;;;;;2.80;1.52;;;;;;;;;;5010766;28;20069;-79
2022/04/30 11:20:48;;;;;;;3.40;1.48;;;;;;;;;;5042711;28;20463;-79
2022/04/30 11:23:23;;;;;;;2.42;1.50;;;;;;;;;;5027336;28;20511;-80
2022/04/30 11:25:48;;;;;;;2.65;1.60;;;;;;;;;;5026820;28;20104;-79
2022/04/30 11:28:14;;;;;;;2.53;1.58;;;;;;;;;;5010699;28;20477;-79
2022/04/30 11:30:41;;;;;;;2.97;1.40;;;;;;;;;;5027009;28;20060;-80
2022/04/30 11:33:06;;;;;;;4.55;1.40;;;;;;;;;;5010158;28;20059;-79
2022/04/30 11:35:32;;;;;;;2.33;1.30;;;;;;;;;;5043367;28;20034;-79
2022/04/30 11:37:57;;;;;;;3.00;1.30;;;;;;;;;;5010341;28;20512;-79
2022/04/30 11:40:23;;;;;;;3.78;1.60;;;;;;;;;;5026697;28;20523;-79
2022/04/30 11:42:58;;;;;;;2.90;1.50;;;;;;;;;;5010732;28;20038;-79
2022/04/30 11:45:30;;;;;;;4.45;1.33;;;;;;;;;;5027279;28;20033;-79
2022/04/30 11:47:56;;;;;;;3.92;1.50;;;;;;;;;;4994662;28;20057;-79
2022/04/30 11:50:21;;;;;;;2.15;1.20;;;;;;;;;;4993799;28;20129;-79
2022/04/30 11:52:47;;;;;;;2.85;1.45;;;;;;;;;;4990636;28;20122;-79
2022/04/30 11:55:13;;;;;;;3.17;1.38;;;;;;;;;;5009125;28;20631;-79
2022/04/30 11:57:42;;;;;;;2.28;1.08;;;;;;;;;;5010998;28;20042;-79
2022/04/30 12:00:09;;;;;;;2.05;1.10;;;;;;;;;;5004320;28;20038;-79
2022/04/30 12:02:39;;;;;;;3.58;1.30;;;;;;;;;;5014065;28;20034;-79
2022/04/30 12:05:05;;;;;;;3.67;1.83;;;;;;;;;;5013936;28;20041;-80
2022/04/30 12:07:38;;;;;;;3.80;2.25;;;;;;;;;;5013483;28;20037;-80
2022/04/30 12:10:19;;;;;;;4.72;2.10;;;;;;;;;;5030000;28;20037;-79
2022/04/30 12:12:45;;;;;;;4.57;2.25;;;;;;;;;;5029596;28;20552;-79
2022/04/30 12:15:21;;;;;;;3.75;2.30;;;;;;;;;;5030570;28;20125;-80
2022/04/30 12:24:40;;;;;;;4.78;2.63;;;;;;;;;;5012949;28;20053;-79
2022/04/30 12:26:09;;;;;;;3.30;2.08;;;;;;;;;;5013729;28;20038;-79
2022/04/30 12:28:47;;;;;;;4.93;1.98;;;;;;;;;;5013641;28;20042;-80
2022/04/30 12:31:12;;;;;;;3.60;1.85;;;;;;;;;;5013409;28;20087;-79
2022/04/30 12:33:48;;;;;;;2.65;1.80;;;;;;;;;;5012109;28;20034;-79
2022/04/30 12:36:14;;;;;;;3.30;2.05;;;;;;;;;;4981264;28;20566;-80
2022/04/30 12:38:39;;;;;;;3.25;1.90;;;;;;;;;;5013304;28;20436;-79
2022/04/30 12:41:06;;;;;;;3.28;1.65;;;;;;;;;;5026293;28;20053;-79
2022/04/30 12:43:36;;;;;;;3.85;2.03;;;;;;;;;;4993756;28;20038;-79
2022/04/30 12:46:02;;;;;;;4.28;2.38;;;;;;;;;;5010617;28;20042;-79
2022/04/30 12:48:27;;;;;;;2.75;1.50;;;;;;;;;;4993356;28;20031;-80
2022/04/30 12:50:52;;;;;;;2.90;1.40;;;;;;;;;;4994437;28;20042;-79
2022/04/30 12:53:18;;;;;;;3.08;1.88;;;;;;;;;;5013471;28;20042;-80
2022/04/30 12:55:44;;;;;;;3.15;1.27;;;;;;;;;;5046415;28;20038;-79
2022/04/30 12:58:09;;;;;;;4.10;1.65;;;;;;;;;;5013481;28;20045;-79
2022/04/30 13:00:35;;;;;;;2.38;1.20;;;;;;;;;;5029661;28;20030;-79
2022/04/30 13:03:00;;;;;;;2.15;1.10;;;;;;;;;;5029509;28;20161;-79
2022/04/30 13:05:27;;;;;;;2.88;1.20;;;;;;;;;;5028784;28;20084;-79
2022/04/30 13:07:52;;;;;;;3.33;1.30;;;;;;;;;;5028629;28;20038;-80
2022/04/30 13:15:45;;;;;;;2.88;1.13;;;;;;;;;;5026861;28;20066;-79
2022/04/30 13:18:12;;;;;;;3.45;1.42;;;;;;;;;;5012509;28;20120;-80
2022/04/30 13:20:37;;;;;;;2.47;1.23;;;;;;;;;;5029165;28;20045;-79
2022/04/30 13:23:03;;;;;;;2.88;1.40;;;;;;;;;;5012670;28;20030;-79
2022/04/30 13:25:29;;;;;;;2.60;1.13;;;;;;;;;;5029381;28;20037;-79
2022/04/30 13:27:55;;;;;;;1.75;1.00;;;;;;;;;;5028918;28;20038;-79
2022/04/30 13:30:24;;;;;;;3.42;1.55;;;;;;;;;;5012919;28;20061;-80
2022/04/30 13:32:50;;;;;;;2.25;1.40;;;;;;;;;;5012351;28;20037;-79
2022/04/30 13:35:15;;;;;;;2.33;1.08;;;;;;;;;;5028633;28;20034;-79
2022/04/30 13:37:45;;;;;;;2.47;1.15;;;;;;;;;;5028506;28;20087;-79
2022/04/30 13:40:11;;;;;;;1.85;0.88;;;;;;;;;;5028836;28;20117;-80
2022/04/30 13:42:41;;;;;;;2.38;1.30;;;;;;;;;;4980043;28;20105;-79
2022/04/30 13:45:07;;;;;;;2.45;1.40;;;;;;;;;;4981214;28;20041;-79
2022/04/30 13:47:32;;;;;;;2.40;1.20;;;;;;;;;;4979226;28;20030;-79
2022/04/30 13:50:00;;;;;;;2.35;1.20;;;;;;;;;;5012263;28;20042;-79
2022/04/30 13:52:26;;;;;;;2.30;0.93;;;;;;;;;;4995662;28;20041;-79
2022/04/30 13:54:52;;;;;;;3.17;1.10;;;;;;;;;;5028658;28;20049;-79
2022/04/30 13:57:19;;;;;;;3.35;1.50;;;;;;;;;;4995788;28;20034;-79
2022/04/30 13:59:44;;;;;;;2.70;1.60;;;;;;;;;;5012037;28;20042;-80
2022/04/30 14:02:10;;;;;;;1.55;0.93;;;;;;;;;;4995129;28;20377;-80
2022/04/30 14:04:36;;;;;;;2.85;1.20;;;;;;;;;;5012256;28;20038;-80
2022/04/30 14:07:02;;;;;;;2.08;1.00;;;;;;;;;;4995408;28;20042;-80
2022/04/30 14:09:28;;;;;;;2.47;1.52;;;;;;;;;;4995497;28;20038;-79
2022/04/30 14:11:54;;;;;;;2.42;1.15;;;;;;;;;;5028174;28;20040;-79
2022/04/30 14:18:15;;;;;;;3.15;1.33;;;;;;;;;;5025189;28;20516;-79
2022/04/30 14:19:50;;;;;;;3.25;1.17;;;;;;;;;;5011763;28;20091;-79
2022/04/30 14:22:15;;;;;;;2.40;0.93;;;;;;;;;;5011465;28;20045;-80
2022/04/30 14:24:41;;;;;;;1.73;0.90;;;;;;;;;;4995501;28;20038;-79
2022/04/30 14:27:06;;;;;;;2.78;1.02;;;;;;;;;;5027526;28;20034;-80
2022/04/30 14:29:31;;;;;;;1.45;0.90;;;;;;;;;;5027729;28;20037;-79
2022/04/30 14:31:57;;;;;;;1.10;0.98;;;;;;;;;;5011413;28;20045;-79
2022/04/30 14:34:22;;;;;;;1.58;0.93;;;;;;;;;;4995333;28;20041;-79
2022/04/30 14:36:48;;;;;;;2.72;1.13;;;;;;;;;;5027316;28;20094;-79
2022/04/30 14:39:13;;;;;;;1.95;0.68;;;;;;;;;;5024635;28;20034;-79
2022/04/30 14:41:38;;;;;;;3.08;0.90;;;;;;;;;;5007882;28;20463;-79
2022/04/30 14:44:04;;;;;;;2.63;1.50;;;;;;;;;;5007433;28;20042;-79
2022/04/30 14:46:29;;;;;;;2.35;1.13;;;;;;;;;;4991464;28;20448;-79
2022/04/30 14:48:55;;;;;;;2.47;1.20;;;;;;;;;;5007503;28;20038;-80
2022/04/30 14:51:20;;;;;;;2.55;1.00;;;;;;;;;;5012425;28;20050;-79
2022/04/30 14:53:46;;;;;;;1.45;0.80;;;;;;;;;;5027738;28;20030;-79
2022/04/30 14:56:12;;;;;;;2.13;1.10;;;;;;;;;;4994769;28;20113;-79
2022/04/30 14:58:39;;;;;;;1.92;0.95;;;;;;;;;;5010651;28;20073;-80
2022/04/30 15:01:06;;;;;;;2.22;1.13;;;;;;;;;;5010947;28;20046;-79
2022/04/30 15:03:31;;;;;;;2.60;1.17;;;;;;;;;;5027662;28;20087;-79
2022/04/30 15:05:57;;;;;;;2.17;0.90;;;;;;;;;;5010862;28;20041;-79
2022/04/30 15:08:22;;;;;;;2.58;0.80;;;;;;;;;;5027232;28;20042;-79
2022/04/30 15:10:47;;;;;;;1.20;0.73;;;;;;;;;;5010847;28;20041;-80
2022/04/30 15:13:13;;;;;;;2.05;1.00;;;;;;;;;;4994148;28;20045;-79
2022/04/30 15:15:41;;;;;;;1.55;0.80;;;;;;;;;;4994077;28;20041;-80
2022/04/30 15:18:06;;;;;;;1.42;0.80;;;;;;;;;;5010746;28;20044;-79
2022/04/30 15:20:32;;;;;;;1.42;0.90;;;;;;;;;;5027315;28;20500;-79
2022/04/30 15:22:57;;;;;;;1.58;1.13;;;;;;;;;;5010782;28;20519;-79
2022/04/30 15:25:22;;;;;;;1.38;0.85;;;;;;;;;;5027098;28;20550;-79
2022/04/30 15:27:48;;;;;;;2.15;1.00;;;;;;;;;;5026938;28;20029;-80